createdAt,value
2018-07-14T00:00:09.047Z,17.40
2018-07-14T00:02:38.082Z,17.40
2018-07-14T00:05:07.103Z,17.30
2018-07-14T00:07:36.330Z,17.20
2018-07-14T00:10:05.368Z,17.10
2018-07-14T00:12:34.323Z,17.10
2018-07-14T00:15:03.398Z,17.10
2018-07-14T00:17:32.388Z,17.10
2018-07-14T00:20:01.387Z,17.10
2018-07-14T00:22:30.387Z,17.10
2018-07-14T00:24:59.387Z,17.00
2018-07-14T00:27:28.350Z,16.90
2018-07-14T00:29:57.297Z,16.90
2018-07-14T00:32:26.278Z,16.90
2018-07-14T00:34:55.234Z,16.80
2018-07-14T00:37:24.189Z,16.80
2018-07-14T00:39:53.154Z,16.70
2018-07-14T00:42:22.174Z,16.70
2018-07-14T00:44:51.202Z,16.60
2018-07-14T00:47:20.254Z,16.60
2018-07-14T00:49:49.215Z,16.60
2018-07-14T00:52:18.171Z,16.50
2018-07-14T00:54:47.171Z,16.60
2018-07-14T00:57:16.123Z,16.50
2018-07-14T00:59:45.083Z,16.50
2018-07-14T01:02:14.056Z,16.60
2018-07-14T01:04:43.088Z,16.50
2018-07-14T01:07:12.042Z,16.60
2018-07-14T01:09:40.989Z,16.50
2018-07-14T01:12:09.983Z,16.40
2018-07-14T01:14:38.950Z,16.50
2018-07-14T01:17:07.924Z,16.50
2018-07-14T01:19:36.943Z,16.60
2018-07-14T01:22:05.936Z,16.50
2018-07-14T01:24:34.887Z,16.50
2018-07-14T01:27:03.954Z,16.40
2018-07-14T01:29:32.907Z,16.40
2018-07-14T01:32:01.915Z,16.30
2018-07-14T01:34:30.866Z,16.30
2018-07-14T01:36:59.827Z,16.20
2018-07-14T01:39:28.769Z,16.30
2018-07-14T01:41:57.731Z,16.20
2018-07-14T01:44:26.734Z,16.30
2018-07-14T01:46:55.721Z,16.20
2018-07-14T01:49:24.686Z,16.10
2018-07-14T01:51:53.635Z,16.10
2018-07-14T01:54:22.614Z,16.10
2018-07-14T01:56:51.584Z,16.00
2018-07-14T01:59:20.571Z,16.00
2018-07-14T02:01:49.534Z,16.00
2018-07-14T02:04:18.542Z,16.00
2018-07-14T02:06:47.728Z,15.90
2018-07-14T02:09:16.679Z,16.00
2018-07-14T02:11:45.710Z,16.00
2018-07-14T02:14:14.672Z,15.80
2018-07-14T02:16:43.620Z,15.90
2018-07-14T02:19:12.615Z,15.80
2018-07-14T02:21:41.564Z,15.80
2018-07-14T02:24:10.555Z,15.70
2018-07-14T02:26:39.511Z,15.80
2018-07-14T02:29:08.496Z,15.80
2018-07-14T02:31:37.547Z,15.70
2018-07-14T02:34:06.507Z,15.70
2018-07-14T02:36:35.529Z,15.70
2018-07-14T02:39:06.352Z,15.70
2018-07-14T02:41:35.435Z,15.80
2018-07-14T02:44:05.214Z,15.80
2018-07-14T02:46:34.265Z,15.70
2018-07-14T02:49:03.321Z,15.70
2018-07-14T02:51:32.290Z,15.80
2018-07-14T02:54:04.284Z,15.60
2018-07-14T02:56:33.307Z,15.60
2018-07-14T02:59:02.284Z,15.50
2018-07-14T03:01:31.281Z,15.60
2018-07-14T03:04:00.232Z,15.60
2018-07-14T03:06:29.183Z,15.60
2018-07-14T03:08:58.367Z,15.60
2018-07-14T03:11:27.415Z,15.50
2018-07-14T03:13:56.406Z,15.50
2018-07-14T03:16:25.401Z,15.50
2018-07-14T03:18:54.406Z,15.50
2018-07-14T03:21:23.455Z,15.50
2018-07-14T03:23:52.467Z,15.50
2018-07-14T03:26:21.451Z,15.40
2018-07-14T03:28:50.405Z,15.40
2018-07-14T03:31:19.403Z,15.50
2018-07-14T03:33:48.387Z,15.60
2018-07-14T03:36:17.370Z,15.60
2018-07-14T03:38:46.598Z,15.50
2018-07-14T03:41:15.559Z,15.40
2018-07-14T03:43:44.575Z,15.50
2018-07-14T03:46:13.574Z,15.50
2018-07-14T03:48:42.524Z,15.50
2018-07-14T03:51:11.570Z,15.50
2018-07-14T03:53:40.610Z,15.40
2018-07-14T03:56:09.606Z,15.40
2018-07-14T03:58:39.226Z,15.40
2018-07-14T04:01:08.170Z,15.30
2018-07-14T04:03:37.151Z,15.40
2018-07-14T04:06:06.559Z,15.20
2018-07-14T04:08:35.583Z,15.30
2018-07-14T04:11:04.595Z,15.40
2018-07-14T04:13:33.739Z,15.30
2018-07-14T04:16:02.768Z,15.30
2018-07-14T04:18:31.771Z,15.30
2018-07-14T04:21:00.745Z,15.30
2018-07-14T04:23:29.697Z,15.30
2018-07-14T04:25:58.693Z,15.40
2018-07-14T04:28:27.642Z,15.40
2018-07-14T04:30:56.643Z,15.50
2018-07-14T04:33:25.650Z,15.50
2018-07-14T04:35:54.603Z,15.50
2018-07-14T04:38:23.574Z,15.50
2018-07-14T04:40:52.530Z,15.50
2018-07-14T04:43:21.495Z,15.60
2018-07-14T04:45:50.454Z,15.60
2018-07-14T04:48:19.503Z,15.50
2018-07-14T04:50:48.507Z,15.50
2018-07-14T04:53:17.544Z,15.50
2018-07-14T04:55:46.547Z,15.60
2018-07-14T04:58:15.573Z,15.50
2018-07-14T05:00:44.539Z,15.50
2018-07-14T05:03:13.878Z,15.60
2018-07-14T05:05:42.843Z,15.70
2018-07-14T05:08:11.923Z,15.70
2018-07-14T05:10:40.988Z,15.70
2018-07-14T05:13:10.207Z,15.70
2018-07-14T05:15:39.188Z,15.90
2018-07-14T05:18:08.251Z,15.80
2018-07-14T05:20:37.226Z,15.90
2018-07-14T05:23:06.235Z,16.00
2018-07-14T05:25:35.230Z,16.10
2018-07-14T05:28:04.219Z,16.30
2018-07-14T05:30:33.167Z,16.40
2018-07-14T05:33:02.159Z,16.50
2018-07-14T05:35:31.187Z,16.50
2018-07-14T05:38:00.158Z,16.70
2018-07-14T05:40:29.123Z,16.70
2018-07-14T05:42:58.090Z,16.80
2018-07-14T05:45:27.067Z,16.90
2018-07-14T05:47:56.010Z,17.10
2018-07-14T05:50:25.084Z,17.10
2018-07-14T05:52:54.055Z,17.20
2018-07-14T05:55:23.023Z,17.30
2018-07-14T05:57:52.038Z,17.50
2018-07-14T06:00:21.019Z,17.70
2018-07-14T06:02:50.023Z,17.80
2018-07-14T06:05:19.001Z,17.70
2018-07-14T06:07:48.071Z,17.60
2018-07-14T06:10:20.012Z,17.70
2018-07-14T06:12:49.004Z,17.70
2018-07-14T06:15:18.175Z,17.70
2018-07-14T06:17:47.218Z,17.90
2018-07-14T06:20:16.230Z,17.90
2018-07-14T06:22:45.234Z,18.10
2018-07-14T06:25:14.276Z,18.10
2018-07-14T06:27:43.324Z,18.30
2018-07-14T06:30:12.406Z,18.50
2018-07-14T06:32:41.410Z,18.70
2018-07-14T06:35:10.383Z,18.90
2018-07-14T06:37:39.419Z,18.90
2018-07-14T06:40:08.393Z,19.00
2018-07-14T06:42:37.542Z,19.00
2018-07-14T06:45:06.644Z,19.00
2018-07-14T06:47:35.900Z,19.20
2018-07-14T06:50:04.906Z,19.50
2018-07-14T06:52:33.924Z,19.90
2018-07-14T06:55:02.921Z,20.70
2018-07-14T06:57:31.951Z,21.30
2018-07-14T07:00:00.966Z,22.10
2018-07-14T07:02:29.922Z,22.40
2018-07-14T07:04:58.928Z,22.60
2018-07-14T07:07:28.026Z,23.50
2018-07-14T07:09:57.207Z,23.70
2018-07-14T07:12:26.187Z,24.40
2018-07-14T07:14:55.200Z,24.70
2018-07-14T07:17:24.246Z,24.90
2018-07-14T07:19:53.294Z,25.10
2018-07-14T07:22:22.298Z,25.60
2018-07-14T07:24:51.290Z,26.70
2018-07-14T07:27:20.398Z,27.00
2018-07-14T07:29:49.415Z,26.90
2018-07-14T07:32:18.378Z,26.60
2018-07-14T07:34:47.491Z,26.40
2018-07-14T07:37:16.491Z,27.10
2018-07-14T07:39:45.481Z,27.60
2018-07-14T07:42:14.496Z,27.80
2018-07-14T07:44:43.426Z,28.40
2018-07-14T07:47:12.538Z,29.00
2018-07-14T07:49:41.567Z,29.90
2018-07-14T07:52:10.571Z,30.30
2018-07-14T07:54:39.547Z,30.30
2018-07-14T07:57:08.599Z,30.20
2018-07-14T07:59:37.648Z,29.90
2018-07-14T08:02:06.767Z,30.40
2018-07-14T08:04:35.720Z,30.40
2018-07-14T08:07:05.259Z,30.60
2018-07-14T08:09:34.226Z,30.30
2018-07-14T08:12:03.251Z,30.20
2018-07-14T08:14:32.218Z,30.40
2018-07-14T08:17:01.204Z,31.30
2018-07-14T08:19:30.297Z,31.50
2018-07-14T08:21:59.253Z,30.90
2018-07-14T08:24:28.275Z,31.40
2018-07-14T08:26:57.238Z,31.80
2018-07-14T08:29:26.259Z,32.10
2018-07-14T08:31:55.307Z,33.10
2018-07-14T08:34:24.307Z,33.30
2018-07-14T08:36:53.294Z,33.60
2018-07-14T08:39:22.319Z,34.10
2018-07-14T08:41:51.370Z,33.50
2018-07-14T08:44:20.327Z,33.60
2018-07-14T08:46:49.311Z,33.50
2018-07-14T08:49:18.297Z,33.40
2018-07-14T08:51:48.721Z,33.60
2018-07-14T08:54:17.953Z,33.70
2018-07-14T08:56:46.908Z,33.80
2018-07-14T08:59:15.879Z,33.70
2018-07-14T09:01:44.948Z,33.60
2018-07-14T09:04:13.887Z,32.60
2018-07-14T09:06:42.898Z,31.60
2018-07-14T09:09:11.935Z,31.40
2018-07-14T09:11:40.878Z,31.50
2018-07-14T09:14:09.859Z,31.00
2018-07-14T09:16:38.930Z,31.30
2018-07-14T09:19:07.894Z,30.90
2018-07-14T09:21:36.990Z,31.30
2018-07-14T09:24:06.712Z,31.70
2018-07-14T09:26:35.663Z,31.90
2018-07-14T09:29:04.727Z,30.90
2018-07-14T09:31:33.699Z,29.50
2018-07-14T09:34:02.702Z,29.50
2018-07-14T09:36:31.670Z,29.20
2018-07-14T09:39:00.643Z,29.10
2018-07-14T09:41:29.798Z,28.50
2018-07-14T09:43:58.848Z,28.20
2018-07-14T09:46:27.759Z,28.20
2018-07-14T09:48:56.752Z,28.00
2018-07-14T09:51:25.738Z,28.00
2018-07-14T09:53:54.697Z,27.70
2018-07-14T09:56:23.836Z,27.50
2018-07-14T09:58:52.799Z,27.40
2018-07-14T10:01:21.770Z,27.40
2018-07-14T10:03:50.768Z,27.40
2018-07-14T10:08:54.947Z,27.10
2018-07-14T10:11:23.988Z,27.10
2018-07-14T10:13:52.920Z,27.00
2018-07-14T10:16:21.967Z,27.00
2018-07-14T10:18:50.914Z,27.00
2018-07-14T10:21:20.045Z,26.70
2018-07-14T10:23:49.039Z,26.70
2018-07-14T10:26:17.995Z,26.70
2018-07-14T10:28:46.994Z,26.70
2018-07-14T10:31:16.004Z,26.70
2018-07-14T10:33:45.110Z,26.80
2018-07-14T10:36:13.932Z,26.90
2018-07-14T10:38:42.979Z,27.10
2018-07-14T10:41:11.959Z,27.10
2018-07-14T10:43:40.922Z,27.20
2018-07-14T10:46:09.968Z,27.40
2018-07-14T10:48:38.915Z,27.60
2018-07-14T10:51:07.874Z,27.60
2018-07-14T10:53:37.063Z,27.40
2018-07-14T10:56:06.307Z,27.50
2018-07-14T10:58:35.270Z,27.40
2018-07-14T11:01:04.967Z,27.30
2018-07-14T11:03:33.946Z,27.30
2018-07-14T11:06:02.899Z,27.30
2018-07-14T11:08:31.890Z,27.50
2018-07-14T11:11:00.876Z,27.50
2018-07-14T11:13:29.858Z,27.70
2018-07-14T11:15:58.816Z,27.60
2018-07-14T11:18:27.813Z,27.80
2018-07-14T11:20:56.765Z,27.90
2018-07-14T11:23:25.710Z,28.10
2018-07-14T11:25:54.747Z,28.20
2018-07-14T11:28:23.807Z,28.00
2018-07-14T11:30:52.750Z,27.90
2018-07-14T11:33:21.702Z,27.70
2018-07-14T11:35:50.664Z,27.70
2018-07-14T11:38:19.687Z,27.50
2018-07-14T11:40:48.651Z,27.40
2018-07-14T11:43:17.625Z,27.30
2018-07-14T11:45:46.574Z,27.30
2018-07-14T11:48:15.567Z,27.30
2018-07-14T11:50:44.555Z,27.30
2018-07-14T11:53:13.578Z,27.10
2018-07-14T11:55:42.571Z,27.30
2018-07-14T11:58:11.530Z,27.40
2018-07-14T12:00:40.494Z,27.60
2018-07-14T12:03:09.638Z,27.80
2018-07-14T12:05:38.595Z,27.80
2018-07-14T12:08:07.578Z,27.80
2018-07-14T12:10:36.578Z,27.70
2018-07-14T12:13:05.531Z,28.00
2018-07-14T12:15:34.482Z,28.10
2018-07-14T12:18:03.472Z,28.40
2018-07-14T12:20:32.418Z,28.40
2018-07-14T12:23:01.614Z,28.50
2018-07-14T12:25:30.576Z,28.50
2018-07-14T12:27:59.564Z,28.70
2018-07-14T12:30:28.614Z,29.00
2018-07-14T12:32:57.514Z,29.10
2018-07-14T12:35:26.478Z,29.20
2018-07-14T12:37:55.448Z,29.20
2018-07-14T12:40:24.414Z,29.10
2018-07-14T12:42:53.371Z,29.30
2018-07-14T12:45:22.374Z,29.50
2018-07-14T12:47:51.315Z,29.50
2018-07-14T12:50:20.260Z,29.70
2018-07-14T12:52:49.231Z,29.80
2018-07-14T12:55:18.179Z,30.20
2018-07-14T12:57:47.179Z,30.50
2018-07-14T13:00:16.225Z,30.20
2018-07-14T13:02:45.203Z,30.10
2018-07-14T13:05:14.179Z,29.40
2018-07-14T13:07:43.237Z,29.70
2018-07-14T13:10:12.119Z,29.60
2018-07-14T13:12:41.090Z,29.60
2018-07-14T13:15:10.038Z,29.80
2018-07-14T13:17:39.059Z,30.30
2018-07-14T13:20:08.091Z,31.10
2018-07-14T13:22:37.031Z,31.90
2018-07-14T13:25:05.998Z,33.00
2018-07-14T13:27:35.008Z,34.00
2018-07-14T13:30:04.271Z,34.50
2018-07-14T13:32:33.232Z,35.50
2018-07-14T13:35:02.225Z,35.40
2018-07-14T13:37:31.186Z,36.40
2018-07-14T13:40:00.140Z,37.20
2018-07-14T13:42:29.107Z,37.20
2018-07-14T13:44:58.063Z,37.80
2018-07-14T13:47:27.078Z,37.90
2018-07-14T13:49:56.103Z,36.90
2018-07-14T13:52:25.154Z,36.30
2018-07-14T13:54:54.107Z,36.80
2018-07-14T13:57:23.079Z,37.50
2018-07-14T13:59:52.066Z,37.10
2018-07-14T14:02:21.108Z,37.10
2018-07-14T14:04:50.070Z,37.90
2018-07-14T14:07:19.042Z,37.50
2018-07-14T14:09:48.099Z,37.00
2018-07-14T14:12:17.330Z,36.60
2018-07-14T14:14:46.306Z,36.90
2018-07-14T14:17:15.279Z,37.50
2018-07-14T14:19:44.213Z,38.40
2018-07-14T14:22:13.201Z,38.70
2018-07-14T14:24:42.278Z,38.60
2018-07-14T14:27:11.302Z,37.50
2018-07-14T14:29:40.576Z,37.10
2018-07-14T14:32:09.555Z,37.90
2018-07-14T14:34:38.600Z,38.90
2018-07-14T14:37:07.625Z,39.00
2018-07-14T14:39:36.587Z,39.20
2018-07-14T14:42:05.545Z,38.90
2018-07-14T14:44:34.567Z,40.40
2018-07-14T14:47:03.874Z,39.60
2018-07-14T14:49:32.931Z,37.70
2018-07-14T14:52:02.090Z,37.60
2018-07-14T14:54:31.013Z,38.30
2018-07-14T14:57:00.056Z,39.70
2018-07-14T14:59:29.011Z,38.80
2018-07-14T15:01:58.026Z,37.40
2018-07-14T15:04:27.035Z,36.30
2018-07-14T15:06:56.001Z,35.20
2018-07-14T15:09:24.975Z,34.30
2018-07-14T15:11:53.990Z,35.20
2018-07-14T15:14:22.949Z,36.50
2018-07-14T15:16:51.930Z,38.30
2018-07-14T15:19:21.105Z,38.40
2018-07-14T15:21:50.102Z,39.30
2018-07-14T15:24:19.156Z,39.40
2018-07-14T15:26:48.132Z,38.40
2018-07-14T15:29:17.243Z,37.80
2018-07-14T15:31:46.295Z,36.90
2018-07-14T15:34:15.344Z,35.70
2018-07-14T15:36:44.405Z,34.40
2018-07-14T15:39:13.375Z,33.70
2018-07-14T15:41:42.400Z,33.30
2018-07-14T15:44:11.362Z,33.40
2018-07-14T15:46:40.365Z,35.40
2018-07-14T15:49:09.330Z,36.40
2018-07-14T15:51:38.459Z,36.60
2018-07-14T15:54:07.431Z,38.20
2018-07-14T15:56:39.452Z,38.00
2018-07-14T15:59:08.458Z,37.10
2018-07-14T16:01:37.462Z,35.50
2018-07-14T16:04:06.514Z,34.40
2018-07-14T16:06:35.467Z,33.60
2018-07-14T16:09:05.155Z,32.90
2018-07-14T16:11:34.124Z,32.70
2018-07-14T16:14:03.101Z,33.20
2018-07-14T16:16:32.150Z,33.20
2018-07-14T16:19:01.323Z,32.90
2018-07-14T16:21:30.364Z,32.40
2018-07-14T16:23:59.354Z,32.10
2018-07-14T16:26:28.371Z,32.80
2018-07-14T16:28:57.325Z,32.60
2018-07-14T16:31:26.319Z,32.10
2018-07-14T16:33:55.320Z,31.60
2018-07-14T16:36:24.615Z,30.90
2018-07-14T16:38:53.574Z,30.70
2018-07-14T16:41:22.608Z,30.30
2018-07-14T16:43:51.563Z,29.90
2018-07-14T16:46:20.536Z,29.60
2018-07-14T16:48:49.499Z,29.50
2018-07-14T16:51:18.637Z,29.40
2018-07-14T16:53:47.625Z,29.20
2018-07-14T16:56:16.573Z,29.50
2018-07-14T16:58:45.705Z,29.40
2018-07-14T17:01:14.602Z,29.40
2018-07-14T17:03:43.591Z,29.00
2018-07-14T17:06:12.580Z,28.80
2018-07-14T17:08:41.539Z,28.50
2018-07-14T17:11:10.527Z,28.40
2018-07-14T17:13:39.563Z,28.30
2018-07-14T17:16:08.527Z,28.30
2018-07-14T17:18:38.502Z,28.50
2018-07-14T17:21:07.494Z,28.50
2018-07-14T17:23:36.562Z,28.50
2018-07-14T17:26:05.555Z,28.50
2018-07-14T17:28:34.510Z,28.40
2018-07-14T17:31:03.746Z,28.20
2018-07-14T17:33:32.784Z,28.30
2018-07-14T17:36:01.759Z,28.20
2018-07-14T17:38:30.814Z,28.10
2018-07-14T17:40:59.769Z,28.10
2018-07-14T17:43:28.763Z,28.00
2018-07-14T17:46:00.714Z,28.00
2018-07-14T17:48:29.790Z,28.00
2018-07-14T17:50:58.775Z,28.00
2018-07-14T17:53:27.834Z,27.90
2018-07-14T17:55:56.835Z,27.70
2018-07-14T17:58:25.842Z,27.60
2018-07-14T18:00:54.807Z,27.40
2018-07-14T18:03:23.767Z,27.30
2018-07-14T18:05:52.734Z,27.10
2018-07-14T18:08:21.754Z,27.10
2018-07-14T18:10:50.708Z,27.10
2018-07-14T18:13:19.698Z,27.10
2018-07-14T18:15:48.655Z,27.00
2018-07-14T18:18:17.620Z,26.90
2018-07-14T18:20:46.610Z,26.90
2018-07-14T18:23:15.569Z,27.00
2018-07-14T18:25:44.502Z,26.80
2018-07-14T18:28:13.482Z,26.80
2018-07-14T18:30:43.220Z,26.70
2018-07-14T18:33:12.198Z,26.60
2018-07-14T18:35:41.201Z,26.40
2018-07-14T18:38:10.150Z,26.40
2018-07-14T18:40:40.368Z,26.40
2018-07-14T18:43:09.331Z,26.40
2018-07-14T18:45:38.307Z,26.30
2018-07-14T18:48:07.299Z,26.30
2018-07-14T18:50:36.360Z,26.30
2018-07-14T18:53:05.671Z,26.20
2018-07-14T18:55:34.628Z,26.10
2018-07-14T18:58:03.586Z,26.10
2018-07-14T19:00:32.583Z,25.90
2018-07-14T19:03:01.543Z,25.90
2018-07-14T19:05:30.521Z,25.80
2018-07-14T19:07:59.531Z,25.80
2018-07-14T19:10:28.613Z,25.70
2018-07-14T19:12:57.550Z,25.60
2018-07-14T19:15:26.547Z,25.50
2018-07-14T19:17:55.515Z,25.40
2018-07-14T19:20:24.682Z,25.40
2018-07-14T19:22:53.658Z,25.30
2018-07-14T19:25:22.622Z,25.30
2018-07-14T19:27:51.636Z,25.30
2018-07-14T19:30:20.617Z,25.30
2018-07-14T19:32:49.550Z,25.20
2018-07-14T19:35:18.527Z,25.10
2018-07-14T19:37:47.475Z,25.00
2018-07-14T19:40:16.466Z,24.90
2018-07-14T19:42:45.553Z,24.90
2018-07-14T19:45:14.473Z,24.80
2018-07-14T19:47:43.456Z,24.70
2018-07-14T19:50:12.426Z,24.70
2018-07-14T19:52:41.484Z,24.70
2018-07-14T19:55:10.434Z,24.50
2018-07-14T19:57:39.464Z,24.40
2018-07-14T20:00:08.455Z,24.40
2018-07-14T20:02:37.415Z,24.40
2018-07-14T20:05:06.404Z,24.30
2018-07-14T20:07:35.831Z,24.20
2018-07-14T20:10:05.170Z,24.10
2018-07-14T20:12:34.119Z,24.00
2018-07-14T20:15:03.123Z,24.00
2018-07-14T20:17:32.287Z,23.80
2018-07-14T20:20:01.483Z,23.80
2018-07-14T20:22:30.542Z,23.80
2018-07-14T20:24:59.538Z,23.70
2018-07-14T20:27:28.607Z,23.70
2018-07-14T20:29:57.650Z,23.60
2018-07-14T20:32:26.596Z,23.40
2018-07-14T20:34:55.586Z,23.40
2018-07-14T20:37:24.530Z,23.20
2018-07-14T20:39:53.522Z,23.10
2018-07-14T20:42:22.707Z,23.00
2018-07-14T20:44:51.766Z,22.90
2018-07-14T20:47:20.767Z,22.80
2018-07-14T20:49:49.762Z,22.70
2018-07-14T20:52:18.877Z,22.60
2018-07-14T20:54:47.850Z,22.60
2018-07-14T20:57:16.838Z,22.50
2018-07-14T20:59:46.684Z,22.40
2018-07-14T21:02:15.702Z,22.30
2018-07-14T21:04:44.679Z,22.30
2018-07-14T21:07:13.743Z,22.20
2018-07-14T21:09:43.021Z,22.10
2018-07-14T21:12:12.397Z,22.00
2018-07-14T21:14:41.394Z,21.90
2018-07-14T21:17:10.349Z,21.80
2018-07-14T21:19:39.347Z,21.70
2018-07-14T21:22:08.326Z,21.60
2018-07-14T21:24:37.538Z,21.60
2018-07-14T21:27:06.615Z,21.40
2018-07-14T21:29:35.583Z,21.30
2018-07-14T21:32:04.680Z,21.30
2018-07-14T21:34:33.686Z,21.20
2018-07-14T21:37:02.920Z,21.10
2018-07-14T21:39:31.900Z,20.90
2018-07-14T21:42:01.355Z,21.00
2018-07-14T21:44:30.426Z,20.90
2018-07-14T21:46:59.422Z,20.80
2018-07-14T21:49:28.441Z,20.70
2018-07-14T21:51:57.961Z,20.70
2018-07-14T21:54:26.926Z,20.60
2018-07-14T21:56:55.899Z,20.60
2018-07-14T21:59:24.876Z,20.60
2018-07-14T22:01:53.858Z,20.60
2018-07-14T22:04:22.820Z,20.50
2018-07-14T22:06:52.202Z,20.60
2018-07-14T22:09:21.159Z,20.50
2018-07-14T22:11:50.120Z,20.50
2018-07-14T22:14:19.062Z,20.40
2018-07-14T22:16:48.043Z,20.20
2018-07-14T22:19:17.006Z,20.30
2018-07-14T22:21:46.051Z,20.30
2018-07-14T22:24:15.039Z,20.30
2018-07-14T22:26:43.998Z,20.30
2018-07-14T22:29:12.976Z,20.20
2018-07-14T22:31:42.117Z,20.10
2018-07-14T22:34:11.079Z,20.00
2018-07-14T22:36:40.075Z,19.90
2018-07-14T22:39:09.036Z,19.90
2018-07-14T22:41:38.074Z,19.90
2018-07-14T22:44:07.039Z,19.80
2018-07-14T22:46:36.016Z,19.80
2018-07-14T22:49:05.346Z,19.60
2018-07-14T22:51:34.332Z,19.60
2018-07-14T22:54:03.287Z,19.70
2018-07-14T22:56:32.299Z,19.60
2018-07-14T22:59:01.246Z,19.50
2018-07-14T23:01:30.194Z,19.60
2018-07-14T23:03:59.201Z,19.50
2018-07-14T23:06:28.238Z,19.60
2018-07-14T23:08:57.260Z,19.60
2018-07-14T23:11:26.259Z,19.40
2018-07-14T23:13:55.219Z,19.40
2018-07-14T23:16:24.190Z,19.40
2018-07-14T23:18:53.171Z,19.40
2018-07-14T23:21:22.170Z,19.30
2018-07-14T23:23:51.151Z,19.20
2018-07-14T23:26:20.338Z,19.10
2018-07-14T23:28:49.286Z,19.00
2018-07-14T23:31:18.273Z,19.00
2018-07-14T23:33:47.261Z,18.80
2018-07-14T23:36:16.212Z,18.60
2018-07-14T23:38:45.155Z,18.60
2018-07-14T23:41:14.121Z,18.50
2018-07-14T23:43:43.069Z,18.50
2018-07-14T23:46:12.070Z,18.60
2018-07-14T23:48:41.096Z,18.50
2018-07-14T23:51:10.102Z,18.50
2018-07-14T23:53:39.123Z,18.40
2018-07-14T23:56:08.084Z,18.50
2018-07-14T23:58:37.058Z,18.40
